Time;durP1;ratioP1;P1;durP2;ratioP2;P2;SDS_P1;SDS_P2;PMS_P1;PMS_P2;Temp;Humidity;BMP_temperature;BMP_pressure;BME280_temperature;BME280_humidity;BME280_pressure;Samples;Min_cycle;Max_cycle;Signal;HPM_P1;HPM_P2
2023/01/10 00:01:33;;;;;;;779.57;343.03;;;;;;;;;;4964504;28;20200;-55
2023/01/10 00:03:59;;;;;;;720.37;298.93;;;;;;;;;;4963990;28;20240;-56
2023/01/10 00:06:26;;;;;;;766.40;332.70;;;;;;;;;;4960471;28;20651;-56
2023/01/10 00:08:52;;;;;;;681.03;278.87;;;;;;;;;;4949920;28;21826;-55
2023/01/10 00:14:03;;;;;;;739.27;313.93;;;;;;;;;;4960021;28;20637;-55
2023/01/10 00:16:30;;;;;;;758.67;331.53;;;;;;;;;;4985070;28;20203;-55
2023/01/10 00:18:59;;;;;;;686.20;293.40;;;;;;;;;;4964077;28;20217;-54
2023/01/10 00:21:27;;;;;;;736.00;316.27;;;;;;;;;;4967523;28;20221;-55
2023/01/10 00:23:56;;;;;;;693.57;298.43;;;;;;;;;;4960787;28;20831;-55
2023/01/10 00:26:28;;;;;;;795.90;337.40;;;;;;;;;;4958793;28;20698;-55
2023/01/10 00:28:55;;;;;;;772.93;336.93;;;;;;;;;;4966846;28;21117;-55
2023/01/10 00:31:22;;;;;;;742.83;335.23;;;;;;;;;;4963665;28;20204;-56
2023/01/10 00:33:49;;;;;;;724.07;310.53;;;;;;;;;;4973646;28;20331;-56
2023/01/10 00:36:15;;;;;;;737.90;325.37;;;;;;;;;;4968629;28;20272;-55
2023/01/10 00:38:52;;;;;;;733.07;312.47;;;;;;;;;;4968445;28;20656;-56
2023/01/10 00:44:07;;;;;;;680.43;284.67;;;;;;;;;;4961202;28;20267;-55
2023/01/10 00:46:34;;;;;;;739.43;315.63;;;;;;;;;;4964652;28;20225;-54
2023/01/10 00:49:10;;;;;;;691.80;284.10;;;;;;;;;;4971251;28;20471;-55
2023/01/10 00:51:40;;;;;;;749.87;321.17;;;;;;;;;;4957934;28;20263;-55
2023/01/10 00:54:09;;;;;;;719.27;320.73;;;;;;;;;;4966361;28;20268;-57
2023/01/10 00:56:38;;;;;;;650.10;289.20;;;;;;;;;;4965123;28;20683;-55
2023/01/10 00:59:06;;;;;;;703.57;306.57;;;;;;;;;;4969129;28;20521;-55
2023/01/10 01:01:33;;;;;;;770.03;343.33;;;;;;;;;;4959537;28;20219;-55
2023/01/10 01:04:03;;;;;;;712.73;311.57;;;;;;;;;;4962748;28;20263;-55
2023/01/10 01:06:33;;;;;;;668.47;293.77;;;;;;;;;;4967335;28;20303;-55
2023/01/10 01:08:59;;;;;;;750.50;325.77;;;;;;;;;;4948300;28;20243;-56
2023/01/10 01:11:25;;;;;;;715.73;296.87;;;;;;;;;;4974418;28;20569;-55
2023/01/10 01:13:55;;;;;;;764.43;340.00;;;;;;;;;;4969366;28;20676;-55
2023/01/10 01:16:22;;;;;;;719.90;308.47;;;;;;;;;;4978097;28;20330;-57
2023/01/10 01:18:48;;;;;;;732.93;330.27;;;;;;;;;;4971149;28;20312;-54
2023/01/10 01:21:15;;;;;;;788.93;355.53;;;;;;;;;;4963776;28;20521;-55
2023/01/10 01:23:41;;;;;;;685.03;287.87;;;;;;;;;;4948494;28;20216;-55
2023/01/10 01:26:10;;;;;;;690.83;282.73;;;;;;;;;;4966933;28;20265;-55
2023/01/10 01:28:39;;;;;;;737.00;309.77;;;;;;;;;;4971587;28;20484;-55
2023/01/10 01:31:09;;;;;;;682.20;297.00;;;;;;;;;;4951697;28;20675;-55
2023/01/10 01:33:36;;;;;;;713.37;304.83;;;;;;;;;;4959707;28;20229;-54
2023/01/10 01:36:31;;;;;;;796.77;344.63;;;;;;;;;;4966829;28;20570;-55
2023/01/10 01:38:58;;;;;;;768.27;340.10;;;;;;;;;;4951761;28;20713;-55
2023/01/10 01:44:17;;;;;;;674.83;288.07;;;;;;;;;;4963326;28;20303;-58
2023/01/10 01:46:46;;;;;;;684.77;282.33;;;;;;;;;;4956380;28;20998;-55
2023/01/10 01:49:19;;;;;;;747.90;335.60;;;;;;;;;;4981934;28;20212;-55
2023/01/10 01:51:48;;;;;;;759.50;327.23;;;;;;;;;;4974489;28;20277;-56
2023/01/10 01:54:18;;;;;;;705.13;290.47;;;;;;;;;;4973849;28;20229;-56
2023/01/10 01:56:50;;;;;;;708.27;306.67;;;;;;;;;;4970433;28;20532;-54
2023/01/10 01:59:26;;;;;;;769.53;334.53;;;;;;;;;;4950635;28;20498;-55
2023/01/10 02:01:55;;;;;;;796.27;337.00;;;;;;;;;;4968840;28;20294;-55
2023/01/10 02:04:23;;;;;;;763.80;323.53;;;;;;;;;;4974299;28;20234;-57
2023/01/10 02:06:55;;;;;;;658.30;290.43;;;;;;;;;;4978668;28;20315;-56
2023/01/10 02:09:41;;;;;;;752.77;327.90;;;;;;;;;;4978050;28;20635;-56
2023/01/10 02:12:07;;;;;;;802.20;347.80;;;;;;;;;;4977113;28;20347;-57
2023/01/10 02:14:34;;;;;;;778.50;336.53;;;;;;;;;;4966255;28;20416;-57
2023/01/10 02:17:03;;;;;;;698.73;303.30;;;;;;;;;;4972963;28;20217;-56
2023/01/10 02:19:32;;;;;;;676.27;282.03;;;;;;;;;;4972547;28;20621;-55
2023/01/10 02:22:08;;;;;;;745.77;313.40;;;;;;;;;;4977062;28;20301;-57
2023/01/10 02:24:49;;;;;;;659.50;279.90;;;;;;;;;;4986871;28;20779;-57
2023/01/10 02:27:18;;;;;;;755.57;331.30;;;;;;;;;;4967001;28;20214;-54
2023/01/10 02:29:48;;;;;;;695.43;300.77;;;;;;;;;;4991433;28;20221;-54
2023/01/10 02:32:20;;;;;;;707.97;296.83;;;;;;;;;;4985853;28;20367;-53
2023/01/10 02:35:02;;;;;;;736.13;307.30;;;;;;;;;;4991858;28;20221;-53
2023/01/10 02:37:41;;;;;;;682.40;287.33;;;;;;;;;;4991460;28;20162;-54
2023/01/10 02:40:26;;;;;;;698.27;289.23;;;;;;;;;;4991293;28;20218;-54
2023/01/10 02:43:05;;;;;;;652.57;268.77;;;;;;;;;;4992602;28;20873;-53
2023/01/10 02:45:38;;;;;;;667.03;285.33;;;;;;;;;;4991697;28;20217;-54
2023/01/10 02:48:10;;;;;;;666.17;273.00;;;;;;;;;;4989651;28;20201;-54
2023/01/10 02:54:40;;;;;;;602.57;238.73;;;;;;;;;;5077813;27;21006;-54
2023/01/10 02:57:15;;;;;;;602.77;244.77;;;;;;;;;;5052697;28;20594;-53
2023/01/10 02:59:50;;;;;;;594.07;246.27;;;;;;;;;;5053267;28;20206;-54
2023/01/10 03:02:20;;;;;;;599.73;245.63;;;;;;;;;;5053120;28;20637;-55
2023/01/10 03:04:54;;;;;;;633.90;257.50;;;;;;;;;;5052946;28;20321;-54
2023/01/10 03:07:26;;;;;;;637.97;268.40;;;;;;;;;;5050685;28;20183;-55
2023/01/10 03:09:52;;;;;;;559.10;230.07;;;;;;;;;;5050518;28;20510;-54
2023/01/10 03:12:24;;;;;;;623.40;248.43;;;;;;;;;;5057458;27;20363;-54
2023/01/10 03:14:52;;;;;;;591.83;247.37;;;;;;;;;;5051660;27;20230;-55
2023/01/10 03:17:19;;;;;;;588.07;232.90;;;;;;;;;;5053956;28;20210;-54
2023/01/10 03:19:53;;;;;;;602.70;238.90;;;;;;;;;;5056955;28;20567;-54
2023/01/10 03:22:19;;;;;;;639.10;259.70;;;;;;;;;;5051477;28;20273;-54
2023/01/10 03:24:48;;;;;;;632.70;252.27;;;;;;;;;;5047870;28;20309;-54
2023/01/10 03:27:25;;;;;;;594.87;242.47;;;;;;;;;;5052007;28;20206;-55
2023/01/10 03:29:54;;;;;;;631.70;249.60;;;;;;;;;;5052198;28;20764;-55
2023/01/10 03:32:22;;;;;;;619.03;246.33;;;;;;;;;;5051457;28;20686;-54
2023/01/10 03:34:49;;;;;;;648.80;260.77;;;;;;;;;;5050502;27;20179;-54
2023/01/10 03:37:18;;;;;;;631.13;254.07;;;;;;;;;;5054493;28;20231;-57
2023/01/10 03:39:50;;;;;;;615.57;245.67;;;;;;;;;;5049808;28;20316;-55
2023/01/10 03:42:22;;;;;;;588.73;244.47;;;;;;;;;;5048791;28;20743;-55
2023/01/10 03:45:01;;;;;;;624.23;243.73;;;;;;;;;;5058232;28;20770;-55
2023/01/10 03:47:28;;;;;;;602.37;235.63;;;;;;;;;;5051533;27;20312;-54
2023/01/10 03:49:56;;;;;;;628.93;255.60;;;;;;;;;;5053209;28;20244;-54
2023/01/10 03:52:23;;;;;;;613.40;246.83;;;;;;;;;;5054305;28;20207;-54
2023/01/10 03:54:50;;;;;;;622.67;251.97;;;;;;;;;;5052506;28;20305;-54
2023/01/10 03:57:17;;;;;;;547.93;227.50;;;;;;;;;;5051908;28;20646;-54
2023/01/10 03:59:44;;;;;;;639.40;256.00;;;;;;;;;;5053948;27;20262;-55
2023/01/10 04:02:10;;;;;;;616.17;246.83;;;;;;;;;;5049204;28;20211;-55
2023/01/10 04:04:36;;;;;;;618.47;249.53;;;;;;;;;;5048890;28;20272;-54
2023/01/10 04:07:02;;;;;;;619.80;241.23;;;;;;;;;;5041240;28;20258;-54
2023/01/10 04:09:28;;;;;;;631.07;258.60;;;;;;;;;;5037606;28;20223;-54
2023/01/10 04:11:55;;;;;;;640.30;256.40;;;;;;;;;;5033451;28;20242;-55
2023/01/10 04:14:21;;;;;;;608.97;240.43;;;;;;;;;;5034662;28;20598;-54
2023/01/10 04:16:47;;;;;;;603.13;238.90;;;;;;;;;;5036280;28;20194;-54
2023/01/10 04:19:13;;;;;;;640.40;256.37;;;;;;;;;;5042281;28;20192;-54
2023/01/10 04:21:40;;;;;;;612.63;242.93;;;;;;;;;;5040991;28;20685;-54
2023/01/10 04:24:06;;;;;;;588.73;244.40;;;;;;;;;;5032572;28;20266;-54
2023/01/10 04:26:32;;;;;;;611.93;242.60;;;;;;;;;;5038399;28;20223;-54
2023/01/10 04:28:59;;;;;;;608.40;243.20;;;;;;;;;;5037022;28;20337;-55
2023/01/10 04:31:25;;;;;;;590.43;234.00;;;;;;;;;;5035845;28;20290;-54
2023/01/10 04:33:52;;;;;;;611.23;240.13;;;;;;;;;;5035603;28;21106;-54
2023/01/10 04:36:18;;;;;;;570.10;226.07;;;;;;;;;;5037950;28;20292;-54
2023/01/10 04:38:44;;;;;;;635.07;258.50;;;;;;;;;;5038075;28;20702;-55
2023/01/10 04:41:10;;;;;;;587.43;230.93;;;;;;;;;;5034516;28;20774;-54
2023/01/10 04:43:36;;;;;;;642.53;252.97;;;;;;;;;;5032308;28;21076;-54
2023/01/10 04:46:02;;;;;;;586.90;235.83;;;;;;;;;;5063162;28;20203;-55
2023/01/10 04:48:29;;;;;;;534.10;218.77;;;;;;;;;;5040261;28;20720;-55
2023/01/10 04:50:55;;;;;;;570.97;233.93;;;;;;;;;;5039181;28;20296;-54
2023/01/10 04:53:24;;;;;;;614.30;251.43;;;;;;;;;;5036519;28;20298;-54
2023/01/10 04:55:50;;;;;;;574.70;236.83;;;;;;;;;;5038638;28;20183;-55
2023/01/10 04:58:16;;;;;;;587.83;237.60;;;;;;;;;;5038036;28;20844;-53
2023/01/10 05:00:42;;;;;;;649.30;257.80;;;;;;;;;;5030938;28;20306;-54
2023/01/10 05:03:09;;;;;;;592.77;239.80;;;;;;;;;;5036441;28;20339;-55
2023/01/10 05:05:35;;;;;;;607.93;252.07;;;;;;;;;;5037953;28;20210;-54
2023/01/10 05:08:01;;;;;;;598.67;235.60;;;;;;;;;;5034933;28;20214;-55
2023/01/10 05:10:27;;;;;;;615.77;248.23;;;;;;;;;;5053148;28;20183;-55
2023/01/10 05:12:54;;;;;;;558.03;229.57;;;;;;;;;;5036964;28;20227;-54
2023/01/10 05:15:21;;;;;;;580.50;239.47;;;;;;;;;;5034492;28;20265;-54
2023/01/10 05:17:49;;;;;;;613.57;251.23;;;;;;;;;;5031569;28;20677;-54
2023/01/10 05:20:16;;;;;;;564.30;233.93;;;;;;;;;;5036723;28;20215;-54
2023/01/10 05:22:42;;;;;;;607.90;245.10;;;;;;;;;;5037999;28;20206;-54
2023/01/10 05:25:08;;;;;;;593.37;246.33;;;;;;;;;;5036046;28;20542;-54
2023/01/10 05:27:34;;;;;;;584.30;233.70;;;;;;;;;;5036545;28;20215;-55
2023/01/10 05:30:00;;;;;;;550.80;222.27;;;;;;;;;;5034474;28;20712;-55
2023/01/10 05:32:29;;;;;;;572.93;225.10;;;;;;;;;;5031954;28;20705;-55
2023/01/10 05:34:55;;;;;;;598.60;241.80;;;;;;;;;;5040505;28;20223;-54
2023/01/10 05:37:21;;;;;;;591.67;238.83;;;;;;;;;;5036627;28;20184;-55
2023/01/10 05:39:47;;;;;;;648.70;256.73;;;;;;;;;;5038402;28;20213;-54
2023/01/10 05:42:13;;;;;;;612.57;248.87;;;;;;;;;;5036390;28;20274;-55
2023/01/10 05:44:39;;;;;;;637.13;258.23;;;;;;;;;;5034652;28;20289;-55
2023/01/10 05:47:05;;;;;;;525.30;213.83;;;;;;;;;;5039045;28;20678;-55
2023/01/10 05:49:31;;;;;;;531.03;212.63;;;;;;;;;;5037986;28;20219;-55
2023/01/10 05:51:57;;;;;;;576.63;233.43;;;;;;;;;;5032928;28;20557;-54
2023/01/10 05:54:23;;;;;;;570.80;233.73;;;;;;;;;;5031617;28;20305;-54
2023/01/10 05:56:49;;;;;;;534.97;224.97;;;;;;;;;;5032214;28;20255;-56
2023/01/10 05:59:25;;;;;;;539.67;220.00;;;;;;;;;;5034381;28;20789;-55
2023/01/10 06:01:51;;;;;;;597.47;241.37;;;;;;;;;;5032783;28;20207;-56
2023/01/10 06:04:17;;;;;;;587.67;243.73;;;;;;;;;;5033528;28;20202;-54
2023/01/10 06:06:43;;;;;;;586.07;249.47;;;;;;;;;;5034539;28;20212;-56
2023/01/10 06:09:09;;;;;;;561.80;221.93;;;;;;;;;;5036450;28;20342;-55
2023/01/10 06:11:37;;;;;;;569.17;224.77;;;;;;;;;;5035294;28;20255;-55
2023/01/10 06:14:04;;;;;;;620.20;252.17;;;;;;;;;;5030256;28;20224;-55
2023/01/10 06:16:30;;;;;;;607.80;239.83;;;;;;;;;;5032772;28;20189;-55
2023/01/10 06:18:56;;;;;;;605.03;252.80;;;;;;;;;;5033025;28;21284;-56
2023/01/10 06:21:22;;;;;;;564.87;242.17;;;;;;;;;;5030676;28;20257;-54
2023/01/10 06:23:48;;;;;;;587.90;252.70;;;;;;;;;;5034980;28;20245;-54
2023/01/10 06:26:14;;;;;;;583.97;240.73;;;;;;;;;;5031873;28;20607;-55
2023/01/10 06:28:40;;;;;;;634.23;259.30;;;;;;;;;;5034023;28;20199;-55
2023/01/10 06:31:07;;;;;;;642.10;266.50;;;;;;;;;;5032141;28;20191;-54
2023/01/10 06:33:33;;;;;;;554.17;225.93;;;;;;;;;;5036726;28;20211;-55
2023/01/10 06:36:00;;;;;;;542.67;224.03;;;;;;;;;;5041206;28;20343;-55
2023/01/10 06:38:31;;;;;;;591.80;253.77;;;;;;;;;;5036872;28;20222;-54
2023/01/10 06:40:57;;;;;;;605.60;253.67;;;;;;;;;;5035765;28;20315;-54
2023/01/10 06:43:23;;;;;;;637.47;262.40;;;;;;;;;;5039458;28;20207;-55
2023/01/10 06:45:49;;;;;;;560.07;230.27;;;;;;;;;;5037173;28;20207;-54
2023/01/10 06:48:15;;;;;;;608.20;243.00;;;;;;;;;;5037218;28;20254;-55
2023/01/10 06:50:42;;;;;;;595.77;240.83;;;;;;;;;;5040923;28;20488;-54
2023/01/10 06:53:08;;;;;;;600.63;245.87;;;;;;;;;;5037569;28;20219;-53
2023/01/10 06:55:34;;;;;;;588.20;244.97;;;;;;;;;;5061223;28;20235;-54
2023/01/10 06:58:01;;;;;;;551.47;228.47;;;;;;;;;;5064077;28;20203;-54
2023/01/10 07:00:28;;;;;;;547.27;224.23;;;;;;;;;;5056193;28;20215;-53
2023/01/10 07:02:55;;;;;;;585.10;243.97;;;;;;;;;;5059752;28;20219;-52
2023/01/10 07:05:21;;;;;;;573.67;229.97;;;;;;;;;;5047714;28;20829;-53
2023/01/10 07:07:48;;;;;;;570.33;235.57;;;;;;;;;;5043923;28;20634;-54
2023/01/10 07:10:14;;;;;;;603.83;236.13;;;;;;;;;;5044540;28;20204;-54
2023/01/10 07:12:40;;;;;;;579.80;236.83;;;;;;;;;;5044178;28;20578;-54
2023/01/10 07:15:07;;;;;;;619.67;242.07;;;;;;;;;;5042846;28;20203;-54
2023/01/10 07:17:33;;;;;;;639.57;260.50;;;;;;;;;;5041707;28;20211;-55
2023/01/10 07:19:59;;;;;;;622.50;247.60;;;;;;;;;;5042077;28;20218;-53
2023/01/10 07:22:25;;;;;;;615.20;252.07;;;;;;;;;;5041094;28;20476;-53
2023/01/10 07:24:53;;;;;;;568.10;233.83;;;;;;;;;;5038473;28;20241;-54
2023/01/10 07:27:19;;;;;;;583.73;232.53;;;;;;;;;;5040058;28;20701;-54
2023/01/10 07:29:45;;;;;;;620.30;250.93;;;;;;;;;;5041450;28;20215;-54
2023/01/10 07:32:12;;;;;;;606.13;244.90;;;;;;;;;;5040679;28;20219;-53
2023/01/10 07:34:38;;;;;;;580.20;243.97;;;;;;;;;;5040157;28;20175;-54
2023/01/10 07:37:04;;;;;;;656.97;269.33;;;;;;;;;;5039471;28;20168;-55
2023/01/10 07:39:30;;;;;;;726.00;302.27;;;;;;;;;;5035723;28;20211;-54
2023/01/10 07:41:56;;;;;;;662.30;265.00;;;;;;;;;;5041703;28;20231;-54
2023/01/10 07:44:23;;;;;;;678.47;280.43;;;;;;;;;;5040288;28;20222;-55
2023/01/10 07:46:49;;;;;;;634.80;263.13;;;;;;;;;;5024308;28;20183;-53
2023/01/10 07:49:16;;;;;;;572.83;238.27;;;;;;;;;;5043153;28;20696;-55
2023/01/10 07:51:42;;;;;;;605.50;252.47;;;;;;;;;;5046257;28;20219;-54
2023/01/10 07:54:08;;;;;;;576.80;228.40;;;;;;;;;;5044821;28;20207;-54
2023/01/10 07:56:34;;;;;;;575.90;234.33;;;;;;;;;;5047698;28;20213;-54
2023/01/10 07:59:00;;;;;;;632.47;249.67;;;;;;;;;;5046778;28;20575;-54
2023/01/10 08:01:28;;;;;;;594.33;244.63;;;;;;;;;;5045464;28;20199;-54
2023/01/10 08:03:57;;;;;;;615.87;248.83;;;;;;;;;;5046319;28;20933;-53
2023/01/10 08:06:26;;;;;;;637.53;265.30;;;;;;;;;;5046330;28;20227;-55
2023/01/10 08:08:52;;;;;;;626.67;241.77;;;;;;;;;;5046470;28;20218;-54
2023/01/10 08:11:18;;;;;;;629.43;269.93;;;;;;;;;;5042172;28;20203;-54
2023/01/10 08:13:44;;;;;;;604.93;252.77;;;;;;;;;;5046489;28;20677;-54
2023/01/10 08:16:11;;;;;;;617.17;258.77;;;;;;;;;;5047569;28;20168;-55
2023/01/10 08:18:41;;;;;;;529.90;224.77;;;;;;;;;;5047424;28;20294;-55
2023/01/10 08:21:11;;;;;;;608.60;254.67;;;;;;;;;;5047140;28;20301;-55
2023/01/10 08:23:37;;;;;;;575.30;238.10;;;;;;;;;;5045954;28;20227;-54
2023/01/10 08:26:04;;;;;;;584.47;242.40;;;;;;;;;;5049315;28;20259;-55
2023/01/10 08:28:30;;;;;;;573.47;225.30;;;;;;;;;;5056729;28;20179;-54
2023/01/10 08:30:57;;;;;;;596.80;240.30;;;;;;;;;;5046153;28;20294;-55
2023/01/10 08:33:24;;;;;;;590.53;247.10;;;;;;;;;;5045862;28;20222;-55
2023/01/10 08:35:50;;;;;;;549.97;226.20;;;;;;;;;;5045994;28;20199;-55
2023/01/10 08:38:19;;;;;;;597.27;248.33;;;;;;;;;;5042441;28;20204;-54
2023/01/10 08:40:46;;;;;;;581.23;242.87;;;;;;;;;;5047059;28;20172;-55
2023/01/10 08:43:16;;;;;;;613.20;249.63;;;;;;;;;;5046201;28;20236;-55
2023/01/10 08:45:43;;;;;;;523.50;228.07;;;;;;;;;;5045472;28;20460;-54
2023/01/10 08:48:12;;;;;;;554.60;233.80;;;;;;;;;;5045873;28;20199;-54
2023/01/10 08:50:41;;;;;;;616.30;249.33;;;;;;;;;;5045394;28;20686;-54
2023/01/10 08:53:12;;;;;;;551.43;231.37;;;;;;;;;;5044462;28;20226;-54
2023/01/10 08:55:38;;;;;;;579.87;243.33;;;;;;;;;;5046163;28;20167;-54
2023/01/10 08:58:04;;;;;;;572.20;237.17;;;;;;;;;;5048681;28;20246;-53
2023/01/10 09:00:30;;;;;;;728.83;332.17;;;;;;;;;;5040779;22;20440;-51
2023/01/10 09:02:56;;;;;;;701.00;311.73;;;;;;;;;;4997069;28;20589;-51
2023/01/10 09:05:24;;;;;;;655.13;287.50;;;;;;;;;;5016637;28;20214;-51
2023/01/10 09:07:50;;;;;;;701.70;318.23;;;;;;;;;;5004016;28;20377;-50
2023/01/10 09:10:17;;;;;;;810.10;384.33;;;;;;;;;;5001252;28;22167;-50
2023/01/10 09:12:55;;;;;;;624.37;283.40;;;;;;;;;;5007711;28;20223;-50
2023/01/10 09:15:22;;;;;;;734.37;334.53;;;;;;;;;;5003871;28;20220;-50
2023/01/10 09:17:49;;;;;;;772.53;361.40;;;;;;;;;;5016496;28;20231;-51
2023/01/10 09:20:15;;;;;;;813.40;381.67;;;;;;;;;;4990200;28;20329;-50
2023/01/10 09:22:41;;;;;;;722.27;335.03;;;;;;;;;;5008153;28;20545;-50
2023/01/10 09:25:08;;;;;;;718.47;322.03;;;;;;;;;;5013035;28;20188;-50
2023/01/10 09:27:34;;;;;;;782.60;353.83;;;;;;;;;;4993036;28;20852;-50
2023/01/10 09:30:00;;;;;;;751.90;348.53;;;;;;;;;;4974271;28;20456;-51
2023/01/10 09:32:26;;;;;;;677.60;294.97;;;;;;;;;;5006232;28;20400;-50
2023/01/10 09:34:53;;;;;;;731.23;328.03;;;;;;;;;;4988085;28;20377;-50
2023/01/10 09:37:19;;;;;;;710.67;325.17;;;;;;;;;;5012655;28;20196;-51
2023/01/10 09:39:45;;;;;;;716.57;335.13;;;;;;;;;;4995101;28;20298;-50
2023/01/10 09:42:11;;;;;;;839.30;397.23;;;;;;;;;;4995552;28;20931;-51
2023/01/10 09:44:58;;;;;;;748.07;352.50;;;;;;;;;;5001661;28;20239;-51
2023/01/10 09:47:30;;;;;;;748.33;343.77;;;;;;;;;;5010313;28;24566;-50
2023/01/10 09:50:00;;;;;;;719.20;332.43;;;;;;;;;;4993798;28;20264;-50
2023/01/10 09:52:34;;;;;;;761.77;357.17;;;;;;;;;;4994911;28;20251;-50
2023/01/10 09:55:06;;;;;;;695.60;321.50;;;;;;;;;;4996445;28;20244;-51
2023/01/10 09:57:32;;;;;;;775.93;357.17;;;;;;;;;;4980778;28;20313;-51
2023/01/10 10:00:00;;;;;;;743.03;344.27;;;;;;;;;;4988566;28;20215;-51
2023/01/10 10:02:30;;;;;;;787.87;380.37;;;;;;;;;;5000716;28;20220;-50
2023/01/10 10:05:03;;;;;;;733.80;333.47;;;;;;;;;;4995114;28;20218;-50
2023/01/10 10:07:30;;;;;;;781.97;370.30;;;;;;;;;;4990276;28;20350;-51
2023/01/10 10:09:56;;;;;;;810.17;385.23;;;;;;;;;;4978641;28;20281;-50
2023/01/10 10:12:55;;;;;;;686.20;313.87;;;;;;;;;;4989698;28;20227;-51
2023/01/10 10:15:21;;;;;;;766.90;354.23;;;;;;;;;;4951992;28;22051;-50
2023/01/10 10:17:52;;;;;;;812.43;382.30;;;;;;;;;;4992252;28;20215;-50
2023/01/10 10:20:25;;;;;;;719.70;327.73;;;;;;;;;;5004138;28;20455;-52
2023/01/10 10:23:04;;;;;;;726.20;335.23;;;;;;;;;;5002107;28;20849;-50
2023/01/10 10:25:39;;;;;;;754.83;353.27;;;;;;;;;;4994642;28;20188;-50
2023/01/10 10:28:11;;;;;;;647.00;283.73;;;;;;;;;;4998748;28;20370;-53
2023/01/10 10:30:42;;;;;;;710.07;328.07;;;;;;;;;;5002912;28;20271;-51
2023/01/10 10:33:17;;;;;;;707.93;320.50;;;;;;;;;;5001363;28;20227;-51
2023/01/10 10:35:49;;;;;;;780.57;368.90;;;;;;;;;;5002369;28;20308;-50
2023/01/10 10:38:20;;;;;;;851.10;399.33;;;;;;;;;;4980695;28;20239;-51
2023/01/10 10:40:48;;;;;;;808.17;382.33;;;;;;;;;;4992788;28;20180;-51
2023/01/10 10:43:20;;;;;;;762.93;366.50;;;;;;;;;;4990634;28;20793;-51
2023/01/10 10:46:05;;;;;;;711.63;329.30;;;;;;;;;;4995639;28;20246;-50
2023/01/10 10:48:32;;;;;;;694.97;332.20;;;;;;;;;;5000449;28;20819;-51
2023/01/10 10:51:02;;;;;;;946.27;461.17;;;;;;;;;;4981821;28;20216;-51
2023/01/10 10:53:29;;;;;;;743.90;350.67;;;;;;;;;;4970969;28;20215;-51
2023/01/10 10:55:55;;;;;;;643.40;289.20;;;;;;;;;;4992746;28;20219;-51
2023/01/10 10:58:22;;;;;;;631.70;287.67;;;;;;;;;;5024995;28;20284;-49
2023/01/10 11:00:48;;;;;;;632.13;279.60;;;;;;;;;;5033090;28;20212;-49
2023/01/10 11:03:15;;;;;;;647.47;292.43;;;;;;;;;;5035525;28;20274;-49
2023/01/10 11:05:42;;;;;;;660.67;295.57;;;;;;;;;;5032481;28;20222;-48
2023/01/10 11:08:11;;;;;;;629.53;289.20;;;;;;;;;;5035655;28;20344;-49
2023/01/10 11:10:38;;;;;;;660.67;302.00;;;;;;;;;;5028561;28;20176;-49
2023/01/10 11:13:13;;;;;;;625.30;285.37;;;;;;;;;;5036824;28;20534;-49
2023/01/10 11:15:41;;;;;;;619.37;278.47;;;;;;;;;;5041503;28;20826;-50
2023/01/10 11:18:11;;;;;;;628.37;278.67;;;;;;;;;;5030491;28;20276;-49
2023/01/10 11:20:37;;;;;;;616.93;275.80;;;;;;;;;;5042364;28;20298;-49
2023/01/10 11:23:04;;;;;;;593.30;261.70;;;;;;;;;;5040994;28;20220;-49
2023/01/10 11:25:30;;;;;;;613.07;274.97;;;;;;;;;;5043164;28;20194;-49
2023/01/10 11:28:01;;;;;;;561.03;255.27;;;;;;;;;;5044190;28;20353;-49
2023/01/10 11:30:28;;;;;;;533.83;245.97;;;;;;;;;;5042713;28;20222;-49
2023/01/10 11:33:01;;;;;;;584.17;264.73;;;;;;;;;;5036300;28;20276;-49
2023/01/10 11:35:35;;;;;;;639.77;282.40;;;;;;;;;;5023012;28;20223;-49
2023/01/10 11:38:20;;;;;;;638.57;286.33;;;;;;;;;;5038714;28;20222;-49
2023/01/10 11:40:54;;;;;;;663.90;295.87;;;;;;;;;;5034452;28;20312;-49
2023/01/10 11:43:37;;;;;;;632.10;296.67;;;;;;;;;;5039763;28;20204;-49
2023/01/10 11:46:04;;;;;;;615.47;279.23;;;;;;;;;;5040754;28;20669;-49
2023/01/10 11:48:39;;;;;;;605.53;282.43;;;;;;;;;;5037190;28;20223;-49
2023/01/10 11:51:05;;;;;;;615.97;285.73;;;;;;;;;;5037137;28;20271;-48
2023/01/10 11:53:33;;;;;;;594.23;271.73;;;;;;;;;;5038592;28;20299;-48
2023/01/10 11:56:00;;;;;;;659.30;306.17;;;;;;;;;;5039414;28;20349;-48
2023/01/10 11:58:30;;;;;;;623.30;283.87;;;;;;;;;;5047428;28;20188;-49
2023/01/10 12:00:56;;;;;;;606.00;275.00;;;;;;;;;;5039770;28;20308;-48
2023/01/10 12:03:28;;;;;;;628.33;297.37;;;;;;;;;;5044158;28;20231;-48
2023/01/10 12:05:59;;;;;;;650.80;295.13;;;;;;;;;;5033821;28;20285;-49
2023/01/10 12:08:29;;;;;;;633.37;289.53;;;;;;;;;;5034226;28;20215;-49
2023/01/10 12:11:00;;;;;;;615.93;275.90;;;;;;;;;;5041728;28;20223;-48
2023/01/10 12:13:28;;;;;;;639.57;289.40;;;;;;;;;;5037217;28;20227;-51
2023/01/10 12:16:14;;;;;;;579.37;271.77;;;;;;;;;;5039960;28;20264;-51
2023/01/10 12:18:40;;;;;;;641.13;293.13;;;;;;;;;;5034207;28;20378;-49
2023/01/10 12:21:08;;;;;;;665.73;303.47;;;;;;;;;;5036272;28;20255;-49
2023/01/10 12:23:40;;;;;;;626.73;278.33;;;;;;;;;;5042813;28;20242;-48
2023/01/10 12:26:06;;;;;;;597.87;279.63;;;;;;;;;;5033300;28;20676;-51
2023/01/10 12:28:34;;;;;;;611.90;279.87;;;;;;;;;;5040506;28;20184;-49
2023/01/10 12:31:01;;;;;;;630.67;297.07;;;;;;;;;;5030138;28;20744;-48
2023/01/10 12:33:39;;;;;;;685.03;309.97;;;;;;;;;;5031050;28;20295;-48
2023/01/10 12:36:06;;;;;;;625.00;287.00;;;;;;;;;;5033641;28;20287;-49
2023/01/10 12:44:26;;;;;;;649.27;297.47;;;;;;;;;;5030135;28;20222;-48
2023/01/10 12:46:56;;;;;;;625.57;288.33;;;;;;;;;;5027789;28;20217;-49
2023/01/10 12:49:24;;;;;;;613.10;293.77;;;;;;;;;;5031773;28;20180;-49
2023/01/10 12:51:52;;;;;;;609.37;279.60;;;;;;;;;;5028205;28;20630;-50
2023/01/10 12:54:20;;;;;;;628.93;277.47;;;;;;;;;;5035699;28;20607;-49
2023/01/10 12:56:47;;;;;;;689.13;321.20;;;;;;;;;;5036697;28;20296;-49
2023/01/10 12:59:16;;;;;;;617.37;291.77;;;;;;;;;;5031014;28;20579;-48
2023/01/10 13:01:42;;;;;;;691.63;321.07;;;;;;;;;;5031483;28;20305;-49
2023/01/10 13:04:14;;;;;;;627.17;285.83;;;;;;;;;;5035404;28;20241;-49
2023/01/10 13:06:42;;;;;;;709.23;332.83;;;;;;;;;;5031453;28;20317;-49
2023/01/10 13:09:12;;;;;;;850.90;389.63;;;;;;;;;;5012976;28;20310;-52
2023/01/10 13:11:54;;;;;;;781.83;360.40;;;;;;;;;;4973759;28;20372;-52
2023/01/10 13:14:24;;;;;;;716.63;327.53;;;;;;;;;;4997960;28;20222;-53
2023/01/10 13:16:55;;;;;;;755.20;352.43;;;;;;;;;;5004558;28;20664;-52
2023/01/10 13:19:26;;;;;;;815.17;392.77;;;;;;;;;;4992211;28;20260;-52
2023/01/10 13:22:12;;;;;;;727.40;345.03;;;;;;;;;;5000898;28;20471;-52
2023/01/10 13:24:39;;;;;;;785.13;373.40;;;;;;;;;;4988659;28;20289;-52
2023/01/10 13:27:05;;;;;;;820.23;394.90;;;;;;;;;;4988227;28;20259;-54
2023/01/10 13:29:38;;;;;;;767.63;357.30;;;;;;;;;;4990135;28;20377;-52
2023/01/10 13:32:18;;;;;;;734.73;343.67;;;;;;;;;;5000443;28;20298;-52
2023/01/10 13:34:44;;;;;;;715.80;339.50;;;;;;;;;;5003840;28;20192;-52
2023/01/10 13:37:12;;;;;;;744.40;347.57;;;;;;;;;;4986061;28;20593;-52
2023/01/10 13:39:44;;;;;;;829.80;391.77;;;;;;;;;;4980963;28;20302;-53
2023/01/10 13:45:03;;;;;;;734.80;329.20;;;;;;;;;;4984456;28;20971;-53
2023/01/10 13:47:39;;;;;;;740.90;345.90;;;;;;;;;;4989489;28;20268;-53
2023/01/10 13:50:32;;;;;;;882.13;420.57;;;;;;;;;;4957711;28;20326;-53
2023/01/10 13:52:58;;;;;;;744.63;346.57;;;;;;;;;;4983692;28;20306;-53
2023/01/10 13:55:35;;;;;;;797.87;373.10;;;;;;;;;;4999783;28;20519;-54
2023/01/10 13:58:03;;;;;;;801.87;373.43;;;;;;;;;;4980726;28;21804;-52
2023/01/10 14:03:35;;;;;;;830.37;393.47;;;;;;;;;;4982239;28;20231;-52
2023/01/10 14:06:01;;;;;;;764.40;356.73;;;;;;;;;;4972440;28;20703;-53
2023/01/10 14:08:29;;;;;;;858.97;416.07;;;;;;;;;;4973938;28;20224;-52
2023/01/10 14:11:09;;;;;;;751.20;344.77;;;;;;;;;;4998560;28;20268;-52
2023/01/10 14:13:36;;;;;;;844.70;399.60;;;;;;;;;;4978499;28;20245;-52
2023/01/10 14:16:02;;;;;;;776.97;350.17;;;;;;;;;;4977874;28;20281;-52
2023/01/10 14:18:38;;;;;;;860.67;403.83;;;;;;;;;;4986732;28;20223;-53
2023/01/10 14:21:08;;;;;;;791.97;373.33;;;;;;;;;;5004280;28;20672;-53
2023/01/10 14:23:42;;;;;;;822.07;388.53;;;;;;;;;;4989127;28;21913;-53
2023/01/10 14:26:17;;;;;;;781.40;366.50;;;;;;;;;;4988279;28;20223;-52